Time;durP1;ratioP1;P1;durP2;ratioP2;P2;SDS_P1;SDS_P2;PMS_P1;PMS_P2;Temp;Humidity;BMP_temperature;BMP_pressure;BME280_temperature;BME280_humidity;BME280_pressure;Samples;Min_cycle;Max_cycle;Signal;HPM_P1;HPM_P2
2023/04/19 00:02:09;;;;;;;;;;;18.80;49.60;;;;;;10328489;28;878;-67
2023/04/19 00:07:05;;;;;;;;;;;18.70;49.60;;;;;;10327623;28;942;-67
2023/04/19 00:12:01;;;;;;;;;;;18.70;49.60;;;;;;10327972;28;1906;-67
2023/04/19 00:16:56;;;;;;;;;;;18.70;49.60;;;;;;10327980;28;781;-67
2023/04/19 00:21:51;;;;;;;;;;;18.70;49.60;;;;;;10328269;28;873;-67
2023/04/19 00:26:47;;;;;;;;;;;18.70;49.60;;;;;;10327222;28;1020;-67
2023/04/19 00:31:42;;;;;;;;;;;18.70;49.70;;;;;;10326809;28;1882;-67
2023/04/19 00:36:37;;;;;;;;;;;18.70;49.60;;;;;;10326580;28;850;-67
2023/04/19 00:41:33;;;;;;;;;;;18.70;49.60;;;;;;10325881;28;826;-67
2023/04/19 00:46:28;;;;;;;;;;;18.70;49.50;;;;;;10326783;28;818;-67
2023/04/19 00:51:24;;;;;;;;;;;18.70;49.60;;;;;;10326054;28;1910;-67
2023/04/19 00:56:19;;;;;;;;;;;18.70;49.60;;;;;;10326005;28;1926;-68
2023/04/19 01:01:14;;;;;;;;;;;18.70;49.70;;;;;;10326055;28;830;-67
2023/04/19 01:06:10;;;;;;;;;;;18.60;49.60;;;;;;10326424;28;786;-67
2023/04/19 01:11:07;;;;;;;;;;;18.70;49.70;;;;;;10325586;28;1983;-67
2023/04/19 01:16:02;;;;;;;;;;;18.70;49.70;;;;;;10325498;28;886;-67
2023/04/19 01:20:57;;;;;;;;;;;18.70;49.70;;;;;;10326109;28;865;-67
2023/04/19 01:25:53;;;;;;;;;;;18.60;49.60;;;;;;10325356;28;876;-67
2023/04/19 01:30:52;;;;;;;;;;;18.60;49.70;;;;;;10324759;28;1955;-67
2023/04/19 01:35:48;;;;;;;;;;;18.60;49.60;;;;;;10328414;28;778;-67
2023/04/19 01:40:43;;;;;;;;;;;18.60;49.60;;;;;;10334075;28;869;-67
2023/04/19 01:45:39;;;;;;;;;;;18.70;49.70;;;;;;10333856;28;846;-67
2023/04/19 01:50:34;;;;;;;;;;;18.60;49.60;;;;;;10333019;28;936;-67
2023/04/19 01:55:29;;;;;;;;;;;18.60;49.60;;;;;;10332575;28;1969;-67
2023/04/19 02:00:25;;;;;;;;;;;18.60;49.70;;;;;;10331988;28;1067;-67
2023/04/19 02:05:20;;;;;;;;;;;18.60;49.70;;;;;;10331875;28;841;-67
2023/04/19 02:10:15;;;;;;;;;;;18.60;49.70;;;;;;10332267;28;822;-67
2023/04/19 02:15:11;;;;;;;;;;;18.60;49.70;;;;;;10332096;28;1902;-67
2023/04/19 02:20:09;;;;;;;;;;;18.60;49.70;;;;;;10331851;28;853;-67
2023/04/19 02:25:05;;;;;;;;;;;18.50;49.70;;;;;;10331760;28;805;-67
2023/04/19 02:30:00;;;;;;;;;;;18.50;49.70;;;;;;10331547;28;785;-67
2023/04/19 02:34:56;;;;;;;;;;;18.60;49.80;;;;;;10331427;28;1906;-67
2023/04/19 02:39:51;;;;;;;;;;;18.60;49.70;;;;;;10331863;28;869;-67
2023/04/19 02:44:47;;;;;;;;;;;18.60;49.70;;;;;;10330977;28;967;-67
2023/04/19 02:49:42;;;;;;;;;;;18.50;49.60;;;;;;10330756;28;952;-67
2023/04/19 02:54:37;;;;;;;;;;;18.50;49.60;;;;;;10329835;28;1902;-68
2023/04/19 02:59:33;;;;;;;;;;;18.50;49.60;;;;;;10330561;28;766;-67
2023/04/19 03:04:30;;;;;;;;;;;18.50;49.70;;;;;;10329720;28;1390;-67
2023/04/19 03:09:25;;;;;;;;;;;18.50;49.70;;;;;;10330055;28;883;-67
2023/04/19 03:14:20;;;;;;;;;;;18.50;49.70;;;;;;10329251;28;1918;-67
2023/04/19 03:19:16;;;;;;;;;;;18.50;49.70;;;;;;10329747;28;837;-67
2023/04/19 03:24:11;;;;;;;;;;;18.50;49.60;;;;;;10329413;28;1056;-67
2023/04/19 03:29:06;;;;;;;;;;;18.50;49.60;;;;;;10329921;28;992;-67
2023/04/19 03:34:02;;;;;;;;;;;18.50;49.60;;;;;;10329192;28;1965;-67
2023/04/19 03:38:57;;;;;;;;;;;18.50;49.60;;;;;;10328937;28;848;-67
2023/04/19 03:43:52;;;;;;;;;;;18.50;49.50;;;;;;10328735;28;849;-67
2023/04/19 03:48:48;;;;;;;;;;;18.50;49.50;;;;;;10328540;28;802;-67
2023/04/19 03:53:43;;;;;;;;;;;18.50;49.50;;;;;;10329016;28;1957;-67
2023/04/19 03:58:39;;;;;;;;;;;18.50;49.40;;;;;;10327155;28;1457;-67
2023/04/19 04:03:34;;;;;;;;;;;18.50;49.40;;;;;;10327840;28;934;-67
2023/04/19 04:08:29;;;;;;;;;;;18.60;49.50;;;;;;10327894;28;808;-67
2023/04/19 04:13:25;;;;;;;;;;;18.50;49.50;;;;;;10328028;28;1987;-67
2023/04/19 04:18:20;;;;;;;;;;;18.50;49.50;;;;;;10327295;28;798;-67
2023/04/19 04:23:16;;;;;;;;;;;18.50;49.50;;;;;;10328300;28;850;-67
2023/04/19 04:28:11;;;;;;;;;;;18.50;49.40;;;;;;10327985;28;841;-67
2023/04/19 04:33:07;;;;;;;;;;;18.50;49.40;;;;;;10326405;28;1977;-67
2023/04/19 04:38:02;;;;;;;;;;;18.60;49.40;;;;;;10326737;28;829;-67
2023/04/19 04:42:59;;;;;;;;;;;18.50;49.40;;;;;;10326384;28;924;-67
2023/04/19 04:47:55;;;;;;;;;;;18.60;49.40;;;;;;10326221;28;883;-67
2023/04/19 04:52:50;;;;;;;;;;;18.70;49.40;;;;;;10326112;28;1973;-67
2023/04/19 04:57:46;;;;;;;;;;;18.60;49.40;;;;;;10326072;28;1194;-67
2023/04/19 05:02:41;;;;;;;;;;;18.70;49.40;;;;;;10326739;28;779;-67
2023/04/19 05:07:36;;;;;;;;;;;18.60;49.30;;;;;;10325183;28;995;-67
2023/04/19 05:12:32;;;;;;;;;;;18.70;49.20;;;;;;10324800;28;1910;-67
2023/04/19 05:17:27;;;;;;;;;;;18.70;49.80;;;;;;10324993;28;1047;-67
2023/04/19 05:22:23;;;;;;;;;;;18.70;49.20;;;;;;10325469;28;798;-68
2023/04/19 05:27:18;;;;;;;;;;;18.70;49.30;;;;;;10325402;28;776;-66
2023/04/19 05:32:13;;;;;;;;;;;18.70;49.20;;;;;;10325746;28;1906;-67
2023/04/19 05:37:09;;;;;;;;;;;18.70;49.30;;;;;;10324560;28;996;-67
2023/04/19 05:42:04;;;;;;;;;;;18.80;49.40;;;;;;10325641;28;786;-67
2023/04/19 05:47:00;;;;;;;;;;;18.80;49.40;;;;;;10324901;28;862;-67
2023/04/19 05:51:55;;;;;;;;;;;18.70;49.30;;;;;;10325412;28;1965;-67
2023/04/19 05:56:51;;;;;;;;;;;18.80;49.30;;;;;;10324893;28;1255;-67
2023/04/19 06:01:46;;;;;;;;;;;18.80;49.30;;;;;;10324672;28;801;-67
2023/04/19 06:06:41;;;;;;;;;;;18.80;49.30;;;;;;10324542;28;944;-67
2023/04/19 06:11:37;;;;;;;;;;;18.80;49.30;;;;;;10324373;28;1981;-67
2023/04/19 06:16:32;;;;;;;;;;;18.90;49.30;;;;;;10325045;28;899;-67
2023/04/19 06:21:28;;;;;;;;;;;18.80;49.30;;;;;;10327194;28;817;-68
2023/04/19 06:26:24;;;;;;;;;;;18.80;49.30;;;;;;10331099;28;1105;-67
2023/04/19 06:31:20;;;;;;;;;;;18.90;49.30;;;;;;10331414;28;1922;-67
2023/04/19 06:36:15;;;;;;;;;;;18.90;49.30;;;;;;10332002;28;852;-67
2023/04/19 06:41:11;;;;;;;;;;;18.90;49.20;;;;;;10330672;28;889;-67
2023/04/19 06:46:06;;;;;;;;;;;18.90;49.20;;;;;;10331207;28;775;-67
2023/04/19 06:51:02;;;;;;;;;;;18.90;49.20;;;;;;10330734;28;1969;-67
2023/04/19 06:55:57;;;;;;;;;;;18.90;49.20;;;;;;10330410;28;1304;-67
2023/04/19 07:00:53;;;;;;;;;;;18.90;49.10;;;;;;10330470;28;893;-67
2023/04/19 07:05:48;;;;;;;;;;;18.90;49.10;;;;;;10363414;28;1110;-67
2023/04/19 07:10:43;;;;;;;;;;;18.90;49.10;;;;;;10371080;28;818;-67
2023/04/19 07:15:39;;;;;;;;;;;19.00;49.20;;;;;;10371612;28;1906;-67
2023/04/19 07:20:34;;;;;;;;;;;18.90;49.10;;;;;;10371502;28;869;-67
2023/04/19 07:25:29;;;;;;;;;;;18.90;49.20;;;;;;10370619;28;1121;-67
2023/04/19 07:30:25;;;;;;;;;;;18.90;49.10;;;;;;10369978;28;857;-77
2023/04/19 07:35:21;;;;;;;;;;;18.90;49.20;;;;;;10369459;28;1898;-67
2023/04/19 07:40:16;;;;;;;;;;;18.90;49.20;;;;;;10370892;28;858;-68
2023/04/19 07:45:11;;;;;;;;;;;18.90;49.20;;;;;;10369917;28;897;-68
2023/04/19 07:50:07;;;;;;;;;;;18.90;49.20;;;;;;10369654;28;948;-68
2023/04/19 07:55:02;;;;;;;;;;;19.00;49.40;;;;;;10368945;28;1905;-68
2023/04/19 07:59:58;;;;;;;;;;;19.00;49.70;;;;;;10369896;28;779;-67
2023/04/19 08:04:53;;;;;;;;;;;18.90;50.20;;;;;;10369114;28;877;-67
2023/04/19 08:09:48;;;;;;;;;;;18.90;50.40;;;;;;10369585;28;854;-68
2023/04/19 08:14:45;;;;;;;;;;;18.90;50.30;;;;;;10368687;28;1972;-68
2023/04/19 08:19:40;;;;;;;;;;;18.80;50.70;;;;;;10369345;28;868;-68
2023/04/19 08:24:36;;;;;;;;;;;18.90;50.60;;;;;;10368393;28;769;-68
2023/04/19 08:29:32;;;;;;;;;;;18.80;50.00;;;;;;10368281;28;856;-70
2023/04/19 08:34:27;;;;;;;;;;;18.90;49.30;;;;;;10367991;28;1956;-68
2023/04/19 08:39:23;;;;;;;;;;;18.80;48.70;;;;;;10369219;28;888;-68
2023/04/19 08:44:18;;;;;;;;;;;18.90;48.20;;;;;;10367674;28;846;-68
2023/04/19 08:49:13;;;;;;;;;;;18.80;47.80;;;;;;10367568;28;858;-68
2023/04/19 08:54:09;;;;;;;;;;;18.80;47.10;;;;;;10368140;28;1957;-68
2023/04/19 08:59:04;;;;;;;;;;;18.80;47.20;;;;;;10368098;28;1164;-68
2023/04/19 09:04:00;;;;;;;;;;;18.80;46.20;;;;;;10367019;28;778;-68
2023/04/19 09:08:57;;;;;;;;;;;18.80;45.80;;;;;;10367207;28;845;-67
2023/04/19 09:13:52;;;;;;;;;;;18.90;45.70;;;;;;10366688;28;2033;-68
2023/04/19 09:18:47;;;;;;;;;;;18.80;45.30;;;;;;10367579;28;858;-68
2023/04/19 09:23:43;;;;;;;;;;;18.80;44.60;;;;;;10366743;28;917;-68
2023/04/19 09:28:38;;;;;;;;;;;18.80;44.20;;;;;;10367012;28;860;-68
2023/04/19 09:33:34;;;;;;;;;;;18.80;43.70;;;;;;10366320;28;1909;-68
2023/04/19 09:38:29;;;;;;;;;;;18.90;43.80;;;;;;10367482;28;856;-68
2023/04/19 09:43:24;;;;;;;;;;;18.90;44.20;;;;;;10366175;28;930;-67
2023/04/19 09:48:20;;;;;;;;;;;18.90;44.60;;;;;;10367320;28;775;-67
2023/04/19 09:53:15;;;;;;;;;;;18.90;45.00;;;;;;10366511;28;1906;-67
2023/04/19 09:58:10;;;;;;;;;;;18.90;45.30;;;;;;10370693;28;1283;-67
2023/04/19 10:03:06;;;;;;;;;;;18.90;45.50;;;;;;10374569;28;933;-67
2023/04/19 10:08:02;;;;;;;;;;;18.90;45.90;;;;;;10373190;28;1023;-67
2023/04/19 10:12:57;;;;;;;;;;;19.00;46.00;;;;;;10373746;28;1910;-77
2023/04/19 10:17:52;;;;;;;;;;;18.90;46.00;;;;;;10373377;28;889;-77
2023/04/19 10:22:48;;;;;;;;;;;18.90;46.30;;;;;;10373133;28;973;-76
2023/04/19 10:27:47;;;;;;;;;;;18.90;46.50;;;;;;10373020;28;877;-67
2023/04/19 10:32:43;;;;;;;;;;;18.90;46.50;;;;;;10373443;28;1959;-68
2023/04/19 10:37:38;;;;;;;;;;;19.00;46.70;;;;;;10373242;28;766;-67
2023/04/19 10:42:34;;;;;;;;;;;19.00;46.70;;;;;;10372422;28;778;-67
2023/04/19 10:47:29;;;;;;;;;;;19.00;46.80;;;;;;10372943;28;801;-67
2023/04/19 10:52:25;;;;;;;;;;;19.00;46.90;;;;;;10372037;28;1906;-69
2023/04/19 10:57:24;;;;;;;;;;;19.10;47.10;;;;;;10371817;28;1240;-67
2023/04/19 11:02:19;;;;;;;;;;;19.10;47.00;;;;;;10371684;28;962;-68
2023/04/19 11:07:17;;;;;;;;;;;19.10;47.20;;;;;;10369926;28;916;-68
2023/04/19 11:12:12;;;;;;;;;;;19.20;47.30;;;;;;10371255;28;1913;-68
2023/04/19 11:17:07;;;;;;;;;;;19.20;47.40;;;;;;10370701;28;1203;-68
2023/04/19 11:22:03;;;;;;;;;;;19.20;47.50;;;;;;10371776;28;878;-68
2023/04/19 11:26:58;;;;;;;;;;;19.20;47.40;;;;;;10370735;28;883;-68
2023/04/19 11:31:54;;;;;;;;;;;19.20;47.60;;;;;;10371225;28;1902;-68
2023/04/19 11:36:49;;;;;;;;;;;19.20;47.50;;;;;;10370304;28;1222;-68
2023/04/19 11:41:46;;;;;;;;;;;19.20;47.00;;;;;;10370087;28;950;-68
2023/04/19 11:46:41;;;;;;;;;;;19.20;46.40;;;;;;10369900;28;882;-68
2023/04/19 11:51:37;;;;;;;;;;;19.20;46.30;;;;;;10369623;28;1901;-67
2023/04/19 11:56:32;;;;;;;;;;;19.20;46.50;;;;;;10369080;28;1295;-68
2023/04/19 12:01:27;;;;;;;;;;;19.20;46.70;;;;;;10369344;28;877;-68
2023/04/19 12:06:23;;;;;;;;;;;19.20;46.70;;;;;;10369752;28;897;-68
2023/04/19 12:11:18;;;;;;;;;;;19.20;46.70;;;;;;10368899;28;1969;-68
2023/04/19 12:16:14;;;;;;;;;;;19.20;46.70;;;;;;10368828;28;782;-67
2023/04/19 12:21:09;;;;;;;;;;;19.20;46.90;;;;;;10368325;28;785;-68
2023/04/19 12:26:04;;;;;;;;;;;19.20;47.00;;;;;;10368104;28;1011;-68
2023/04/19 12:31:00;;;;;;;;;;;19.20;47.10;;;;;;10368218;28;865;-68
2023/04/19 12:35:55;;;;;;;;;;;19.20;47.20;;;;;;10368000;28;1906;-68
2023/04/19 12:40:50;;;;;;;;;;;19.20;47.20;;;;;;10368489;28;810;-73
2023/04/19 12:45:46;;;;;;;;;;;19.20;47.20;;;;;;10367303;28;995;-68
2023/04/19 12:50:41;;;;;;;;;;;19.20;47.30;;;;;;10367303;28;973;-68
2023/04/19 12:55:36;;;;;;;;;;;19.20;47.30;;;;;;10367153;28;1961;-69
2023/04/19 13:00:32;;;;;;;;;;;19.20;47.30;;;;;;10366441;28;868;-68
2023/04/19 13:05:27;;;;;;;;;;;19.30;47.40;;;;;;10366848;28;875;-68
2023/04/19 13:10:23;;;;;;;;;;;19.30;47.40;;;;;;10367281;28;873;-68
2023/04/19 13:15:18;;;;;;;;;;;19.30;47.40;;;;;;10366473;28;1922;-68
2023/04/19 13:20:13;;;;;;;;;;;19.30;47.40;;;;;;10366426;28;821;-68
2023/04/19 13:25:09;;;;;;;;;;;19.30;47.40;;;;;;10365833;28;774;-68
2023/04/19 13:30:04;;;;;;;;;;;19.40;47.50;;;;;;10365444;28;906;-68
2023/04/19 13:35:00;;;;;;;;;;;19.40;47.40;;;;;;10366198;28;1910;-68
2023/04/19 13:39:55;;;;;;;;;;;19.50;47.30;;;;;;10365452;28;922;-68
2023/04/19 13:44:50;;;;;;;;;;;19.50;47.40;;;;;;10366578;28;869;-68
2023/04/19 13:49:50;;;;;;;;;;;19.50;47.40;;;;;;10365742;28;896;-68
2023/04/19 13:54:46;;;;;;;;;;;19.60;47.40;;;;;;10365543;28;1910;-69
2023/04/19 13:59:41;;;;;;;;;;;19.60;47.50;;;;;;10365620;28;822;-68
2023/04/19 14:04:37;;;;;;;;;;;19.60;47.40;;;;;;10365458;28;1035;-68
2023/04/19 14:09:32;;;;;;;;;;;19.70;47.50;;;;;;10365490;28;950;-69
2023/04/19 14:14:27;;;;;;;;;;;19.70;47.30;;;;;;10365959;28;1910;-68
2023/04/19 14:19:23;;;;;;;;;;;19.70;47.20;;;;;;10365890;28;853;-68
2023/04/19 14:24:18;;;;;;;;;;;19.90;47.10;;;;;;10365169;28;828;-69
2023/04/19 14:29:13;;;;;;;;;;;19.90;47.20;;;;;;10365088;28;816;-69
2023/04/19 14:34:09;;;;;;;;;;;19.90;47.00;;;;;;10365707;28;1969;-69
2023/04/19 14:39:04;;;;;;;;;;;19.90;47.00;;;;;;10365225;28;870;-69
2023/04/19 14:44:00;;;;;;;;;;;20.00;47.00;;;;;;10368859;28;859;-68
2023/04/19 14:48:56;;;;;;;;;;;20.10;47.00;;;;;;10372034;28;829;-69
2023/04/19 14:53:51;;;;;;;;;;;20.10;46.90;;;;;;10371071;28;1909;-68
2023/04/19 14:58:46;;;;;;;;;;;20.20;46.90;;;;;;10372459;28;1424;-68
2023/04/19 15:03:42;;;;;;;;;;;20.20;46.80;;;;;;10371442;28;791;-68
2023/04/19 15:08:37;;;;;;;;;;;20.20;47.40;;;;;;10370671;28;908;-69
2023/04/19 15:13:34;;;;;;;;;;;20.20;46.60;;;;;;10371162;28;1913;-68
2023/04/19 15:18:29;;;;;;;;;;;20.30;46.60;;;;;;10370893;28;805;-68
2023/04/19 15:23:25;;;;;;;;;;;20.30;46.60;;;;;;10371288;28;981;-67
2023/04/19 15:28:20;;;;;;;;;;;20.30;46.50;;;;;;10370694;28;762;-68
2023/04/19 15:33:15;;;;;;;;;;;20.20;46.60;;;;;;10371125;28;1914;-70
2023/04/19 15:38:11;;;;;;;;;;;20.20;46.50;;;;;;10370359;28;813;-70
2023/04/19 15:43:07;;;;;;;;;;;20.10;46.40;;;;;;10370330;28;873;-68
2023/04/19 15:48:02;;;;;;;;;;;20.10;46.30;;;;;;10369903;28;861;-68
2023/04/19 15:52:57;;;;;;;;;;;20.00;46.30;;;;;;10350858;28;1910;-68
2023/04/19 15:57:53;;;;;;;;;;;19.90;46.50;;;;;;10369807;28;1253;-68
2023/04/19 16:02:48;;;;;;;;;;;19.90;46.60;;;;;;10369427;28;825;-68
2023/04/19 16:07:44;;;;;;;;;;;19.90;46.50;;;;;;10369978;28;794;-68
2023/04/19 16:12:39;;;;;;;;;;;19.90;46.50;;;;;;10368281;28;1971;-68
2023/04/19 16:17:34;;;;;;;;;;;19.90;46.60;;;;;;10368693;28;980;-68
2023/04/19 16:22:31;;;;;;;;;;;19.80;46.50;;;;;;10369818;28;948;-68
2023/04/19 16:27:27;;;;;;;;;;;19.80;46.50;;;;;;10369521;28;986;-68
2023/04/19 16:32:22;;;;;;;;;;;19.80;46.50;;;;;;10368809;28;1905;-68
2023/04/19 16:37:18;;;;;;;;;;;19.80;46.50;;;;;;10368640;28;837;-68
2023/04/19 16:42:14;;;;;;;;;;;19.80;46.50;;;;;;10368580;28;894;-68
2023/04/19 16:47:09;;;;;;;;;;;19.80;46.50;;;;;;10367858;28;817;-68
2023/04/19 16:52:04;;;;;;;;;;;19.80;46.50;;;;;;10367963;28;1901;-68
2023/04/19 16:57:01;;;;;;;;;;;19.80;46.50;;;;;;10368376;28;1255;-68
2023/04/19 17:01:56;;;;;;;;;;;19.80;46.40;;;;;;10367826;28;836;-68
2023/04/19 17:06:54;;;;;;;;;;;19.80;46.40;;;;;;10366121;28;743;-68
2023/04/19 17:11:49;;;;;;;;;;;19.80;46.30;;;;;;10366781;28;1909;-68
2023/04/19 17:16:45;;;;;;;;;;;19.80;46.30;;;;;;10366746;28;908;-68
2023/04/19 17:21:40;;;;;;;;;;;19.80;46.30;;;;;;10366610;28;777;-68
2023/04/19 17:26:35;;;;;;;;;;;19.80;46.20;;;;;;10367183;28;941;-68
2023/04/19 17:31:31;;;;;;;;;;;19.80;46.30;;;;;;10366526;28;1901;-68
2023/04/19 17:36:27;;;;;;;;;;;19.80;46.20;;;;;;10366273;28;830;-68
2023/04/19 17:41:22;;;;;;;;;;;19.80;46.20;;;;;;10366838;28;848;-68
2023/04/19 17:46:18;;;;;;;;;;;19.80;46.20;;;;;;10366188;28;930;-80
2023/04/19 17:51:13;;;;;;;;;;;19.80;46.20;;;;;;10366316;28;1967;-79
2023/04/19 17:56:08;;;;;;;;;;;19.80;46.10;;;;;;10365805;28;1354;-79
2023/04/19 18:01:05;;;;;;;;;;;19.90;46.20;;;;;;10366597;28;928;-79
2023/04/19 18:06:00;;;;;;;;;;;19.90;46.30;;;;;;10365848;28;801;-79
2023/04/19 18:10:56;;;;;;;;;;;19.90;46.30;;;;;;10365032;28;1053;-79
2023/04/19 18:15:51;;;;;;;;;;;19.90;46.30;;;;;;10365286;28;1965;-73
2023/04/19 18:20:46;;;;;;;;;;;19.90;46.30;;;;;;10374067;28;915;-72
2023/04/19 18:25:42;;;;;;;;;;;19.90;46.40;;;;;;10373523;28;942;-73
2023/04/19 18:30:37;;;;;;;;;;;19.80;46.30;;;;;;10372175;28;1061;-73
2023/04/19 18:35:35;;;;;;;;;;;19.90;46.20;;;;;;10366235;28;1902;-73
2023/04/19 18:40:30;;;;;;;;;;;19.90;46.30;;;;;;10331354;28;969;-73
2023/04/19 18:45:27;;;;;;;;;;;19.90;46.40;;;;;;10331136;28;817;-73
2023/04/19 18:50:23;;;;;;;;;;;19.90;46.30;;;;;;10330396;28;1218;-72
2023/04/19 18:55:18;;;;;;;;;;;19.90;46.30;;;;;;10330685;28;1955;-71
2023/04/19 19:00:13;;;;;;;;;;;19.90;46.20;;;;;;10330666;28;924;-72
2023/04/19 19:05:09;;;;;;;;;;;19.90;46.40;;;;;;10330416;28;863;-76
2023/04/19 19:10:04;;;;;;;;;;;20.00;46.40;;;;;;10330018;28;884;-76
2023/04/19 19:15:00;;;;;;;;;;;19.90;46.40;;;;;;10329910;28;1909;-75
2023/04/19 19:19:55;;;;;;;;;;;19.90;46.40;;;;;;10329894;28;903;-75
2023/04/19 19:24:51;;;;;;;;;;;20.00;46.50;;;;;;10329341;28;795;-76
2023/04/19 19:29:46;;;;;;;;;;;20.00;46.40;;;;;;10328429;28;778;-77
2023/04/19 19:34:41;;;;;;;;;;;20.00;46.40;;;;;;10329138;28;1902;-76
2023/04/19 19:39:37;;;;;;;;;;;20.00;46.40;;;;;;10328303;28;848;-76
2023/04/19 19:44:32;;;;;;;;;;;20.00;46.40;;;;;;10328400;28;834;-76
2023/04/19 19:49:27;;;;;;;;;;;20.00;46.40;;;;;;10328251;28;974;-76
2023/04/19 19:54:23;;;;;;;;;;;20.00;46.50;;;;;;10329420;28;1902;-72
2023/04/19 19:59:18;;;;;;;;;;;19.90;46.50;;;;;;10329045;28;1223;-76
2023/04/19 20:04:13;;;;;;;;;;;19.90;46.60;;;;;;10328762;28;849;-76
2023/04/19 20:09:09;;;;;;;;;;;20.00;46.60;;;;;;10328448;28;876;-76
2023/04/19 20:14:04;;;;;;;;;;;20.00;46.60;;;;;;10327683;28;1977;-76
2023/04/19 20:19:00;;;;;;;;;;;20.00;47.20;;;;;;10328091;28;918;-75
2023/04/19 20:23:55;;;;;;;;;;;20.00;46.50;;;;;;10327371;28;857;-76
2023/04/19 20:28:51;;;;;;;;;;;20.00;46.60;;;;;;10327178;28;912;-75
2023/04/19 20:33:46;;;;;;;;;;;20.00;46.60;;;;;;10327614;28;1967;-75
2023/04/19 20:38:43;;;;;;;;;;;20.00;46.70;;;;;;10326934;28;773;-75
2023/04/19 20:43:39;;;;;;;;;;;20.00;46.60;;;;;;10326345;28;925;-75
2023/04/19 20:48:34;;;;;;;;;;;20.00;46.60;;;;;;10327102;28;838;-75
2023/04/19 20:53:30;;;;;;;;;;;20.00;46.60;;;;;;10326927;28;1937;-75
2023/04/19 20:58:25;;;;;;;;;;;20.00;46.70;;;;;;10326565;28;1164;-76
2023/04/19 21:03:20;;;;;;;;;;;19.90;46.60;;;;;;10325956;28;901;-75
2023/04/19 21:08:17;;;;;;;;;;;19.90;46.60;;;;;;10325839;28;852;-75
2023/04/19 21:13:13;;;;;;;;;;;19.90;46.60;;;;;;10325771;28;1909;-75
2023/04/19 21:18:08;;;;;;;;;;;19.90;46.70;;;;;;10325693;28;758;-75
2023/04/19 21:23:04;;;;;;;;;;;19.90;46.60;;;;;;10326043;28;936;-75
2023/04/19 21:27:59;;;;;;;;;;;19.90;46.60;;;;;;10326227;28;785;-75
2023/04/19 21:32:54;;;;;;;;;;;20.00;46.60;;;;;;10325311;28;1905;-75
2023/04/19 21:37:50;;;;;;;;;;;19.90;46.60;;;;;;10325316;28;763;-75
2023/04/19 21:42:45;;;;;;;;;;;19.90;46.60;;;;;;10325966;28;793;-75
2023/04/19 21:47:41;;;;;;;;;;;19.90;46.50;;;;;;10326319;28;829;-75
2023/04/19 21:52:36;;;;;;;;;;;19.90;46.60;;;;;;10327226;28;1902;-75
2023/04/19 21:57:31;;;;;;;;;;;19.90;46.60;;;;;;10332531;28;1322;-75
2023/04/19 22:02:27;;;;;;;;;;;19.90;46.70;;;;;;10334089;28;810;-75
2023/04/19 22:07:22;;;;;;;;;;;19.90;46.70;;;;;;10333649;28;851;-75
2023/04/19 22:12:18;;;;;;;;;;;19.90;46.60;;;;;;10333382;28;1914;-76
2023/04/19 22:17:17;;;;;;;;;;;19.90;46.60;;;;;;10332291;28;781;-75
2023/04/19 22:22:12;;;;;;;;;;;19.90;46.60;;;;;;10332777;28;898;-76
2023/04/19 22:27:07;;;;;;;;;;;19.90;46.70;;;;;;10331635;28;948;-75
2023/04/19 22:32:03;;;;;;;;;;;19.90;46.70;;;;;;10331080;28;1963;-75
2023/04/19 22:36:58;;;;;;;;;;;19.90;46.70;;;;;;10331517;28;773;-74
2023/04/19 22:41:54;;;;;;;;;;;19.90;46.70;;;;;;10331987;28;837;-74
2023/04/19 22:46:50;;;;;;;;;;;19.90;46.70;;;;;;10331214;28;809;-75
2023/04/19 22:51:46;;;;;;;;;;;19.90;46.80;;;;;;10330948;28;1902;-75
2023/04/19 22:56:42;;;;;;;;;;;19.90;46.70;;;;;;10330514;28;1253;-75
2023/04/19 23:01:37;;;;;;;;;;;19.90;46.70;;;;;;10330675;28;785;-74
2023/04/19 23:06:32;;;;;;;;;;;19.90;46.70;;;;;;10330437;28;917;-74
2023/04/19 23:11:28;;;;;;;;;;;19.90;46.70;;;;;;10330690;28;1922;-75
2023/04/19 23:16:24;;;;;;;;;;;19.80;46.70;;;;;;10330027;28;899;-75
2023/04/19 23:21:19;;;;;;;;;;;19.80;46.80;;;;;;10329923;28;766;-75
2023/04/19 23:26:14;;;;;;;;;;;19.90;46.90;;;;;;10330308;28;954;-75
2023/04/19 23:31:10;;;;;;;;;;;19.80;46.80;;;;;;10329001;28;805;-74
2023/04/19 23:36:05;;;;;;;;;;;19.80;46.80;;;;;;10329410;28;1969;-74
2023/04/19 23:41:01;;;;;;;;;;;19.80;46.80;;;;;;10329197;28;797;-74
2023/04/19 23:45:56;;;;;;;;;;;19.80;46.90;;;;;;10330236;28;937;-74
2023/04/19 23:50:51;;;;;;;;;;;19.80;46.90;;;;;;10329684;28;900;-75
2023/04/19 23:55:47;;;;;;;;;;;19.80;46.90;;;;;;10327838;28;1898;-74
